createdAt,value
2018-07-26T00:00:30.184Z,0.00
2018-07-26T00:01:30.210Z,0.00
2018-07-26T00:02:30.224Z,0.00
2018-07-26T00:03:30.262Z,0.00
2018-07-26T00:04:30.277Z,0.00
2018-07-26T00:05:30.322Z,0.00
2018-07-26T00:06:30.329Z,0.00
2018-07-26T00:07:30.350Z,0.00
2018-07-26T00:08:30.378Z,0.00
2018-07-26T00:09:30.403Z,0.00
2018-07-26T00:10:30.431Z,0.00
2018-07-26T00:11:30.456Z,0.00
2018-07-26T00:12:30.496Z,0.00
2018-07-26T00:13:30.508Z,0.00
2018-07-26T00:14:30.532Z,0.00
2018-07-26T00:15:30.561Z,0.00
2018-07-26T00:16:30.584Z,0.00
2018-07-26T00:17:30.610Z,0.00
2018-07-26T00:18:30.625Z,0.00
2018-07-26T00:19:30.653Z,0.00
2018-07-26T00:20:30.679Z,0.00
2018-07-26T00:21:30.753Z,0.00
2018-07-26T00:22:30.734Z,0.00
2018-07-26T00:23:30.755Z,0.00
2018-07-26T00:24:30.782Z,0.00
2018-07-26T00:25:30.808Z,0.00
2018-07-26T00:26:30.831Z,0.00
2018-07-26T00:27:30.894Z,0.00
2018-07-26T00:28:30.884Z,0.00
2018-07-26T00:29:30.911Z,0.00
2018-07-26T00:30:30.926Z,0.00
2018-07-26T00:31:30.951Z,0.00
2018-07-26T00:32:30.977Z,0.00
2018-07-26T00:33:31.015Z,0.00
2018-07-26T00:34:31.042Z,0.00
2018-07-26T00:35:31.054Z,0.00
2018-07-26T00:36:31.081Z,0.00
2018-07-26T00:37:31.107Z,0.00
2018-07-26T00:38:31.131Z,0.00
2018-07-26T00:39:31.159Z,0.00
2018-07-26T00:40:31.182Z,0.00
2018-07-26T00:41:31.209Z,0.00
2018-07-26T00:42:31.236Z,0.00
2018-07-26T00:43:31.251Z,0.00
2018-07-26T00:44:31.276Z,0.00
2018-07-26T00:45:31.301Z,0.00
2018-07-26T00:46:31.327Z,0.00
2018-07-26T00:47:31.352Z,0.00
2018-07-26T00:48:31.379Z,0.00
2018-07-26T00:49:31.404Z,0.00
2018-07-26T00:50:31.429Z,0.00
2018-07-26T00:51:31.455Z,0.00
2018-07-26T00:52:31.469Z,0.00
2018-07-26T00:53:31.494Z,0.00
2018-07-26T00:54:31.524Z,0.00
2018-07-26T00:55:31.548Z,0.00
2018-07-26T00:56:31.574Z,0.00
2018-07-26T00:57:31.600Z,0.00
2018-07-26T00:58:31.623Z,0.00
2018-07-26T00:59:31.650Z,0.00
2018-07-26T01:00:31.677Z,0.00
2018-07-26T01:01:31.690Z,0.00
2018-07-26T01:02:31.718Z,0.00
2018-07-26T01:03:31.747Z,0.00
2018-07-26T01:04:31.772Z,0.00
2018-07-26T01:05:31.797Z,0.00
2018-07-26T01:06:31.819Z,0.00
2018-07-26T01:07:31.846Z,0.00
2018-07-26T01:08:31.871Z,0.00
2018-07-26T01:09:31.906Z,0.00
2018-07-26T01:10:31.913Z,0.00
2018-07-26T01:11:31.950Z,0.00
2018-07-26T01:12:31.965Z,0.00
2018-07-26T01:13:31.990Z,0.00
2018-07-26T01:14:32.014Z,0.00
2018-07-26T01:15:32.040Z,0.00
2018-07-26T01:16:32.066Z,0.00
2018-07-26T01:17:32.092Z,0.00
2018-07-26T01:18:32.107Z,0.00
2018-07-26T01:19:32.135Z,0.00
2018-07-26T01:20:32.160Z,0.00
2018-07-26T01:21:32.187Z,0.00
2018-07-26T01:22:32.212Z,0.00
2018-07-26T01:23:32.237Z,0.00
2018-07-26T01:24:32.265Z,0.00
2018-07-26T01:25:32.278Z,0.00
2018-07-26T01:26:32.299Z,0.00
2018-07-26T01:27:32.326Z,0.00
2018-07-26T01:28:32.352Z,0.00
2018-07-26T01:29:32.382Z,0.00
2018-07-26T01:30:32.406Z,0.00
2018-07-26T01:31:32.432Z,0.00
2018-07-26T01:32:32.447Z,0.00
2018-07-26T01:33:32.473Z,0.00
2018-07-26T01:34:32.496Z,0.00
2018-07-26T01:35:32.522Z,0.00
2018-07-26T01:36:32.551Z,0.00
2018-07-26T01:37:32.576Z,0.00
2018-07-26T01:38:32.600Z,0.00
2018-07-26T01:39:32.625Z,0.00
2018-07-26T01:40:32.639Z,0.00
2018-07-26T01:41:32.664Z,0.00
2018-07-26T01:42:32.692Z,0.00
2018-07-26T01:43:32.718Z,0.00
2018-07-26T01:44:32.744Z,0.00
2018-07-26T01:45:32.770Z,0.00
2018-07-26T01:46:32.781Z,0.00
2018-07-26T01:47:32.810Z,0.00
2018-07-26T01:48:32.836Z,0.00
2018-07-26T01:49:32.861Z,0.00
2018-07-26T01:50:32.888Z,0.00
2018-07-26T01:51:32.916Z,0.00
2018-07-26T01:52:32.927Z,0.00
2018-07-26T01:53:32.967Z,0.00
2018-07-26T01:54:32.979Z,0.00
2018-07-26T01:55:33.018Z,0.00
2018-07-26T01:56:33.037Z,0.00
2018-07-26T01:57:33.056Z,0.00
2018-07-26T01:58:33.069Z,0.00
2018-07-26T01:59:33.094Z,0.00
2018-07-26T02:00:33.121Z,0.00
2018-07-26T02:01:33.190Z,0.00
2018-07-26T02:02:33.174Z,0.00
2018-07-26T02:03:33.202Z,0.00
2018-07-26T02:04:33.214Z,0.00
2018-07-26T02:05:33.239Z,0.00
2018-07-26T02:06:33.264Z,0.00
2018-07-26T02:07:33.289Z,0.00
2018-07-26T02:08:33.316Z,0.00
2018-07-26T02:09:33.342Z,0.00
2018-07-26T02:10:33.355Z,0.00
2018-07-26T02:11:33.382Z,0.00
2018-07-26T02:12:33.408Z,0.00
2018-07-26T02:13:33.434Z,0.00
2018-07-26T02:14:33.461Z,0.00
2018-07-26T02:15:33.475Z,0.00
2018-07-26T02:16:33.501Z,0.00
2018-07-26T02:17:33.526Z,0.00
2018-07-26T02:18:33.550Z,0.00
2018-07-26T02:19:33.589Z,0.00
2018-07-26T02:20:33.602Z,0.00
2018-07-26T02:21:33.616Z,0.00
2018-07-26T02:22:33.644Z,0.00
2018-07-26T02:23:33.674Z,0.00
2018-07-26T02:24:33.695Z,0.00
2018-07-26T02:25:33.723Z,0.00
2018-07-26T02:26:33.743Z,0.00
2018-07-26T02:27:33.763Z,0.00
2018-07-26T02:28:33.796Z,0.00
2018-07-26T02:29:33.812Z,0.00
2018-07-26T02:30:33.849Z,0.00
2018-07-26T02:31:33.862Z,0.00
2018-07-26T02:32:33.880Z,4.00
2018-07-26T02:33:33.901Z,4.00
2018-07-26T02:34:33.934Z,0.00
2018-07-26T02:35:33.956Z,0.00
2018-07-26T02:36:33.982Z,4.00
2018-07-26T02:37:33.996Z,4.00
2018-07-26T02:38:34.019Z,4.00
2018-07-26T02:39:34.045Z,4.00
2018-07-26T02:40:34.070Z,4.00
2018-07-26T02:41:34.096Z,4.00
2018-07-26T02:42:34.111Z,8.00
2018-07-26T02:43:34.137Z,4.00
2018-07-26T02:44:34.166Z,8.00
2018-07-26T02:45:34.189Z,8.00
2018-07-26T02:46:34.203Z,12.00
2018-07-26T02:47:34.232Z,12.00
2018-07-26T02:48:34.255Z,16.00
2018-07-26T02:49:34.296Z,16.00
2018-07-26T02:50:34.306Z,16.00
2018-07-26T02:51:34.331Z,20.00
2018-07-26T02:52:34.345Z,24.00
2018-07-26T02:53:34.371Z,24.00
2018-07-26T02:54:34.399Z,28.00
2018-07-26T02:55:34.425Z,32.00
2018-07-26T02:56:34.438Z,40.00
2018-07-26T02:57:34.463Z,44.00
2018-07-26T02:58:34.490Z,48.00
2018-07-26T02:59:34.530Z,52.00
2018-07-26T03:00:34.544Z,60.00
2018-07-26T03:01:34.556Z,68.00
2018-07-26T03:02:34.578Z,76.00
2018-07-26T03:03:34.607Z,84.00
2018-07-26T03:04:34.631Z,92.00
2018-07-26T03:05:34.666Z,100.00
2018-07-26T03:06:34.673Z,112.00
2018-07-26T03:07:34.698Z,124.00
2018-07-26T03:08:34.724Z,136.00
2018-07-26T03:09:34.756Z,152.00
2018-07-26T03:10:34.762Z,164.00
2018-07-26T03:11:34.788Z,176.00
2018-07-26T03:12:34.814Z,192.00
2018-07-26T03:13:34.844Z,208.00
2018-07-26T03:14:34.855Z,228.00
2018-07-26T03:15:34.881Z,244.00
2018-07-26T03:16:34.906Z,264.00
2018-07-26T03:17:34.939Z,284.00
2018-07-26T03:18:34.945Z,304.00
2018-07-26T03:19:34.972Z,328.00
2018-07-26T03:20:34.996Z,352.00
2018-07-26T03:21:35.023Z,372.00
2018-07-26T03:22:35.055Z,400.00
2018-07-26T03:23:35.063Z,424.00
2018-07-26T03:24:35.090Z,448.00
2018-07-26T03:25:35.115Z,476.00
2018-07-26T03:26:35.139Z,504.00
2018-07-26T03:27:35.153Z,532.00
2018-07-26T03:28:35.179Z,564.00
2018-07-26T03:29:35.205Z,592.00
2018-07-26T03:30:35.232Z,620.00
2018-07-26T03:31:35.258Z,648.00
2018-07-26T03:32:35.269Z,680.00
2018-07-26T03:33:35.295Z,712.00
2018-07-26T03:34:35.336Z,748.00
2018-07-26T03:35:35.338Z,780.00
2018-07-26T03:36:35.363Z,816.00
2018-07-26T03:37:35.390Z,852.00
2018-07-26T03:38:35.414Z,884.00
2018-07-26T03:39:35.427Z,916.00
2018-07-26T03:40:35.452Z,952.00
2018-07-26T03:41:35.491Z,984.00
2018-07-26T03:42:35.506Z,1020.00
2018-07-26T03:43:35.549Z,1056.00
2018-07-26T03:44:35.546Z,1092.00
2018-07-26T03:45:35.572Z,1128.00
2018-07-26T03:46:35.597Z,1164.00
2018-07-26T03:47:35.624Z,1204.00
2018-07-26T03:48:35.637Z,1240.00
2018-07-26T03:49:35.679Z,1276.00
2018-07-26T03:50:35.687Z,1316.00
2018-07-26T03:51:35.712Z,1352.00
2018-07-26T03:52:35.741Z,1388.00
2018-07-26T03:53:35.752Z,1424.00
2018-07-26T03:54:35.781Z,1460.00
2018-07-26T03:55:35.812Z,1496.00
2018-07-26T03:56:35.819Z,1532.00
2018-07-26T03:57:35.845Z,1568.00
2018-07-26T03:58:35.874Z,1604.00
2018-07-26T03:59:35.897Z,1640.00
2018-07-26T04:00:35.912Z,1672.00
2018-07-26T04:01:35.935Z,1712.00
2018-07-26T04:02:35.963Z,1744.00
2018-07-26T04:03:35.987Z,1776.00
2018-07-26T04:04:36.013Z,1812.00
2018-07-26T04:05:36.082Z,1844.00
2018-07-26T04:06:36.054Z,1880.00
2018-07-26T04:07:36.082Z,1916.00
2018-07-26T04:08:36.093Z,1948.00
2018-07-26T04:09:36.121Z,1980.00
2018-07-26T04:10:36.144Z,2012.00
2018-07-26T04:11:36.169Z,2044.00
2018-07-26T04:12:36.182Z,2076.00
2018-07-26T04:13:36.211Z,2112.00
2018-07-26T04:14:36.236Z,2144.00
2018-07-26T04:15:36.265Z,2176.00
2018-07-26T04:16:36.277Z,2212.00
2018-07-26T04:17:36.302Z,2244.00
2018-07-26T04:18:36.327Z,2280.00
2018-07-26T04:19:36.354Z,2312.00
2018-07-26T04:20:36.368Z,2344.00
2018-07-26T04:21:36.391Z,2376.00
2018-07-26T04:22:36.419Z,2408.00
2018-07-26T04:23:36.446Z,2436.00
2018-07-26T04:24:36.460Z,2472.00
2018-07-26T04:25:36.536Z,2504.00
2018-07-26T04:26:36.509Z,2536.00
2018-07-26T04:27:36.536Z,2568.00
2018-07-26T04:28:36.561Z,2604.00
2018-07-26T04:29:36.574Z,2640.00
2018-07-26T04:30:36.604Z,2672.00
2018-07-26T04:31:36.628Z,2704.00
2018-07-26T04:32:36.655Z,2740.00
2018-07-26T04:33:36.672Z,2772.00
2018-07-26T04:34:36.694Z,2808.00
2018-07-26T04:35:36.720Z,2836.00
2018-07-26T04:36:36.747Z,2872.00
2018-07-26T04:37:36.760Z,2896.00
2018-07-26T04:38:36.782Z,2928.00
2018-07-26T04:39:36.809Z,2956.00
2018-07-26T04:40:36.850Z,2984.00
2018-07-26T04:41:36.860Z,3016.00
2018-07-26T04:42:36.876Z,3044.00
2018-07-26T04:43:36.903Z,3076.00
2018-07-26T04:44:36.930Z,3104.00
2018-07-26T04:45:36.955Z,3136.00
2018-07-26T04:46:36.969Z,3168.00
2018-07-26T04:47:36.993Z,3204.00
2018-07-26T04:48:37.017Z,3232.00
2018-07-26T04:49:37.043Z,3260.00
2018-07-26T04:50:37.071Z,3288.00
2018-07-26T04:51:37.083Z,3312.00
2018-07-26T04:52:37.110Z,3336.00
2018-07-26T04:53:37.136Z,3360.00
2018-07-26T04:54:37.232Z,3388.00
2018-07-26T04:55:37.189Z,3412.00
2018-07-26T04:56:37.204Z,3436.00
2018-07-26T04:57:37.229Z,3460.00
2018-07-26T04:58:37.251Z,3492.00
2018-07-26T04:59:37.279Z,3512.00
2018-07-26T05:00:37.303Z,3536.00
2018-07-26T05:01:37.330Z,3556.00
2018-07-26T05:02:37.348Z,3584.00
2018-07-26T05:03:37.372Z,3608.00
2018-07-26T05:04:37.398Z,3636.00
2018-07-26T05:05:37.424Z,3668.00
2018-07-26T05:06:37.436Z,3700.00
2018-07-26T05:07:37.463Z,3728.00
2018-07-26T05:08:37.488Z,3756.00
2018-07-26T05:09:37.532Z,3784.00
2018-07-26T05:10:37.541Z,3808.00
2018-07-26T05:11:37.552Z,3840.00
2018-07-26T05:12:37.579Z,3860.00
2018-07-26T05:13:37.604Z,3880.00
2018-07-26T05:14:37.632Z,3900.00
2018-07-26T05:15:37.659Z,3924.00
2018-07-26T05:16:37.672Z,3952.00
2018-07-26T05:17:37.696Z,3972.00
2018-07-26T05:18:37.721Z,3992.00
2018-07-26T05:19:37.762Z,4008.00
2018-07-26T05:20:37.774Z,4040.00
2018-07-26T05:21:37.802Z,4060.00
2018-07-26T05:22:37.814Z,4084.00
2018-07-26T05:23:37.845Z,4124.00
2018-07-26T05:24:37.867Z,4212.00
2018-07-26T05:25:37.893Z,4220.00
2018-07-26T05:26:37.916Z,4224.00
2018-07-26T05:27:37.959Z,4272.00
2018-07-26T05:28:37.957Z,4348.00
2018-07-26T05:29:37.981Z,4468.00
2018-07-26T05:30:38.012Z,4988.00
2018-07-26T05:31:38.048Z,5532.00
2018-07-26T05:32:38.065Z,5500.00
2018-07-26T05:33:38.087Z,6048.00
2018-07-26T05:34:38.100Z,6440.00
2018-07-26T05:35:38.125Z,5584.00
2018-07-26T05:36:38.151Z,5304.00
2018-07-26T05:37:38.231Z,4860.00
2018-07-26T05:38:38.204Z,4508.00
2018-07-26T05:39:38.229Z,4512.00
2018-07-26T05:40:38.254Z,4592.00
2018-07-26T05:41:38.269Z,4628.00
2018-07-26T05:42:38.295Z,4608.00
2018-07-26T05:43:38.321Z,4652.00
2018-07-26T05:44:38.347Z,4628.00
2018-07-26T05:45:38.374Z,4644.00
2018-07-26T05:46:38.397Z,4672.00
2018-07-26T05:47:38.424Z,4692.00
2018-07-26T05:48:38.449Z,4716.00
2018-07-26T05:49:38.463Z,4744.00
2018-07-26T05:50:38.491Z,4764.00
2018-07-26T05:51:38.519Z,4800.00
2018-07-26T05:52:38.543Z,4872.00
2018-07-26T05:53:38.570Z,4932.00
2018-07-26T05:54:38.595Z,4992.00
2018-07-26T05:55:38.622Z,5304.00
2018-07-26T05:56:38.647Z,5016.00
2018-07-26T05:57:38.666Z,5036.00
2018-07-26T05:58:38.684Z,5036.00
2018-07-26T05:59:38.722Z,5060.00
2018-07-26T06:00:38.742Z,5092.00
2018-07-26T06:01:38.766Z,5200.00
2018-07-26T06:02:38.792Z,5660.00
2018-07-26T06:03:38.815Z,5980.00
2018-07-26T06:04:38.841Z,5392.00
2018-07-26T06:05:38.869Z,5508.00
2018-07-26T06:06:38.883Z,5592.00
2018-07-26T06:07:38.908Z,5804.00
2018-07-26T06:08:38.931Z,6496.00
2018-07-26T06:09:38.989Z,13392.00
2018-07-26T06:10:38.983Z,14716.00
2018-07-26T06:11:39.009Z,11480.00
2018-07-26T06:12:39.035Z,9996.00
2018-07-26T06:13:39.061Z,7912.00
2018-07-26T06:14:39.089Z,6876.00
2018-07-26T06:15:39.114Z,7016.00
2018-07-26T06:16:39.141Z,9356.00
2018-07-26T06:17:39.166Z,14248.00
2018-07-26T06:18:39.179Z,18784.00
2018-07-26T06:19:39.205Z,17696.00
2018-07-26T06:20:39.256Z,13740.00
2018-07-26T06:21:39.268Z,8432.00
2018-07-26T06:22:39.283Z,6312.00
2018-07-26T06:23:39.310Z,6596.00
2018-07-26T06:24:39.342Z,6352.00
2018-07-26T06:25:39.362Z,8052.00
2018-07-26T06:26:39.389Z,11600.00
2018-07-26T06:27:39.413Z,9944.00
2018-07-26T06:28:39.442Z,15440.00
2018-07-26T06:29:39.465Z,32416.00
2018-07-26T06:30:39.490Z,37888.00
2018-07-26T06:31:39.515Z,33120.00
2018-07-26T06:32:39.542Z,26624.00
2018-07-26T06:33:39.694Z,21088.00
2018-07-26T06:34:39.597Z,15988.00
2018-07-26T06:35:39.621Z,19360.00
2018-07-26T06:36:39.663Z,34176.00
2018-07-26T06:37:39.672Z,36320.00
2018-07-26T06:38:39.696Z,31328.00
2018-07-26T06:39:39.723Z,41984.00
2018-07-26T06:40:39.748Z,39712.00
2018-07-26T06:41:39.776Z,50432.00
2018-07-26T06:42:39.813Z,51584.00
2018-07-26T06:43:39.839Z,49760.00
2018-07-26T06:44:39.866Z,48384.00
2018-07-26T06:45:39.891Z,46240.00
2018-07-26T06:46:39.919Z,47456.00
2018-07-26T06:47:39.948Z,48608.00
2018-07-26T06:48:39.983Z,50400.00
2018-07-26T06:49:40.009Z,50208.00
2018-07-26T06:50:40.047Z,44608.00
2018-07-26T06:51:40.059Z,35488.00
2018-07-26T06:52:40.098Z,32544.00
2018-07-26T06:53:40.125Z,34944.00
2018-07-26T06:54:40.151Z,35200.00
2018-07-26T06:55:40.190Z,33632.00
2018-07-26T06:56:40.216Z,35104.00
2018-07-26T06:57:40.255Z,36864.00
2018-07-26T06:58:40.281Z,39104.00
2018-07-26T06:59:40.306Z,40928.00
2018-07-26T07:00:40.381Z,43072.00
2018-07-26T07:01:40.370Z,45952.00
2018-07-26T07:02:40.412Z,48320.00
2018-07-26T07:03:40.434Z,49568.00
2018-07-26T07:04:40.471Z,47936.00
2018-07-26T07:05:40.497Z,51456.00
2018-07-26T07:06:40.545Z,56480.00
2018-07-26T07:07:40.564Z,57184.00
2018-07-26T07:08:40.602Z,57152.00
2018-07-26T07:09:40.641Z,59936.00
2018-07-26T07:10:40.669Z,62336.00
2018-07-26T07:11:40.703Z,61280.00
2018-07-26T07:12:40.728Z,62624.00
2018-07-26T07:13:40.770Z,64448.00
2018-07-26T07:14:40.793Z,63808.00
2018-07-26T07:15:40.832Z,63872.00
2018-07-26T07:16:40.873Z,63456.00
2018-07-26T07:17:40.899Z,64352.00
2018-07-26T07:18:40.936Z,60640.00
2018-07-26T07:19:40.977Z,57440.00
2018-07-26T07:20:41.003Z,59744.00
2018-07-26T07:21:41.039Z,59520.00
2018-07-26T07:22:41.077Z,60448.00
2018-07-26T07:23:41.103Z,62208.00
2018-07-26T07:24:41.142Z,63552.00
2018-07-26T07:25:41.178Z,64768.00
2018-07-26T07:26:41.222Z,64032.00
2018-07-26T07:27:41.302Z,63776.00
2018-07-26T07:28:41.284Z,64544.00
2018-07-26T07:29:41.322Z,64736.00
2018-07-26T07:30:41.347Z,66784.00
2018-07-26T07:31:41.387Z,67264.00
2018-07-26T07:32:41.422Z,69312.00
2018-07-26T07:33:41.464Z,68672.00
2018-07-26T07:34:41.515Z,67712.00
2018-07-26T07:35:41.527Z,67712.00
2018-07-26T07:36:41.567Z,67488.00
2018-07-26T07:37:41.605Z,65376.00
2018-07-26T07:38:41.642Z,66368.00
2018-07-26T07:39:41.667Z,66240.00
2018-07-26T07:40:41.709Z,63584.00
2018-07-26T07:41:41.768Z,62336.00
2018-07-26T07:42:41.784Z,65056.00
2018-07-26T07:43:41.826Z,66656.00
2018-07-26T07:44:41.862Z,65920.00
2018-07-26T07:45:41.888Z,65312.00
2018-07-26T07:46:41.952Z,61440.00
2018-07-26T07:47:41.991Z,68608.00
2018-07-26T07:48:42.002Z,68480.00
2018-07-26T07:49:42.042Z,67104.00
2018-07-26T07:50:42.080Z,66112.00
2018-07-26T07:51:42.116Z,60384.00
2018-07-26T07:52:42.154Z,48896.00
2018-07-26T07:53:42.192Z,51520.00
2018-07-26T07:54:42.221Z,50688.00
2018-07-26T07:55:42.259Z,39296.00
2018-07-26T07:56:42.297Z,32704.00
2018-07-26T07:57:42.336Z,46848.00
2018-07-26T07:58:42.373Z,63712.00
2018-07-26T07:59:42.454Z,68608.00
2018-07-26T08:00:42.449Z,69056.00
2018-07-26T08:01:42.488Z,67040.00
2018-07-26T08:02:42.528Z,63136.00
2018-07-26T08:03:42.565Z,64896.00
2018-07-26T08:04:42.602Z,66784.00
2018-07-26T08:05:42.642Z,66752.00
2018-07-26T08:06:42.727Z,65440.00
2018-07-26T08:07:42.731Z,68032.00
2018-07-26T08:08:42.758Z,69088.00
2018-07-26T08:09:42.798Z,68384.00
2018-07-26T08:10:42.836Z,68224.00
2018-07-26T08:11:42.875Z,70112.00
2018-07-26T08:12:42.970Z,72000.00
2018-07-26T08:13:42.950Z,73600.00
2018-07-26T08:14:42.990Z,75040.00
2018-07-26T08:15:43.029Z,73760.00
2018-07-26T08:16:43.066Z,71936.00
2018-07-26T08:17:43.108Z,69952.00
2018-07-26T08:18:43.144Z,73056.00
2018-07-26T08:19:43.186Z,73888.00
2018-07-26T08:20:43.220Z,72096.00
2018-07-26T08:21:43.259Z,70656.00
2018-07-26T08:22:43.295Z,70496.00
2018-07-26T08:23:43.344Z,68160.00
2018-07-26T08:24:43.384Z,68800.00
2018-07-26T08:25:43.421Z,68096.00
2018-07-26T08:26:43.468Z,65472.00
2018-07-26T08:27:43.500Z,63648.00
2018-07-26T08:28:43.541Z,66720.00
2018-07-26T08:29:43.577Z,69440.00
2018-07-26T08:30:43.615Z,70880.00
2018-07-26T08:31:43.665Z,69952.00
2018-07-26T08:32:43.695Z,69984.00
2018-07-26T08:33:43.729Z,70496.00
2018-07-26T08:34:43.768Z,70656.00
2018-07-26T08:35:43.806Z,70496.00
2018-07-26T08:36:43.857Z,71040.00
2018-07-26T08:37:43.896Z,73376.00
2018-07-26T08:38:43.936Z,44448.00
2018-07-26T08:39:43.976Z,12176.00
2018-07-26T08:40:44.012Z,18816.00
2018-07-26T08:41:44.051Z,52480.00
2018-07-26T08:42:44.087Z,77056.00
2018-07-26T08:43:44.157Z,75904.00
2018-07-26T08:44:44.165Z,75168.00
2018-07-26T08:45:44.203Z,74208.00
2018-07-26T08:46:44.256Z,71936.00
2018-07-26T08:47:44.285Z,70880.00
2018-07-26T08:48:44.321Z,70368.00
2018-07-26T08:49:44.360Z,68800.00
2018-07-26T08:50:44.397Z,68192.00
2018-07-26T08:51:44.436Z,66048.00
2018-07-26T08:52:44.474Z,62528.00
2018-07-26T08:53:44.515Z,61088.00
2018-07-26T08:54:44.548Z,53536.00
2018-07-26T08:55:44.587Z,25344.00
2018-07-26T08:56:44.626Z,10552.00
2018-07-26T08:57:44.665Z,29120.00
2018-07-26T08:58:44.704Z,52096.00
2018-07-26T08:59:44.745Z,55680.00
2018-07-26T09:00:44.781Z,57664.00
2018-07-26T09:01:44.821Z,56608.00
2018-07-26T09:02:44.880Z,56576.00
2018-07-26T09:03:44.895Z,56192.00
2018-07-26T09:04:44.933Z,56256.00
2018-07-26T09:05:44.972Z,55776.00
2018-07-26T09:06:44.998Z,55232.00
2018-07-26T09:07:45.036Z,51232.00
2018-07-26T09:08:45.075Z,51936.00
2018-07-26T09:09:45.117Z,53408.00
2018-07-26T09:10:45.166Z,53952.00
2018-07-26T09:11:45.191Z,52736.00
2018-07-26T09:12:45.230Z,54752.00
2018-07-26T09:13:45.286Z,56448.00
2018-07-26T09:14:45.305Z,57728.00
2018-07-26T09:15:45.342Z,56704.00
2018-07-26T09:16:45.382Z,57312.00
2018-07-26T09:17:45.422Z,59872.00
2018-07-26T09:18:45.461Z,61152.00
2018-07-26T09:19:45.582Z,59712.00
2018-07-26T09:20:45.538Z,62048.00
2018-07-26T09:21:45.576Z,62688.00
2018-07-26T09:22:45.615Z,63328.00
2018-07-26T09:23:45.668Z,66944.00
2018-07-26T09:24:45.691Z,68832.00
2018-07-26T09:25:45.729Z,69632.00
2018-07-26T09:26:45.766Z,71392.00
2018-07-26T09:27:45.804Z,74176.00
2018-07-26T09:28:45.867Z,71616.00
2018-07-26T09:29:45.882Z,72640.00
2018-07-26T09:30:45.921Z,74816.00
2018-07-26T09:31:45.960Z,75104.00
2018-07-26T09:32:45.999Z,76800.00
2018-07-26T09:33:46.053Z,81120.00
2018-07-26T09:34:46.086Z,58464.00
2018-07-26T09:35:46.128Z,18752.00
2018-07-26T09:36:46.164Z,24288.00
2018-07-26T09:37:46.201Z,63808.00
2018-07-26T09:38:46.254Z,87776.00
2018-07-26T09:39:46.282Z,88832.00
2018-07-26T09:40:46.318Z,88832.00
2018-07-26T09:41:46.356Z,91296.00
2018-07-26T09:42:46.396Z,90656.00
2018-07-26T09:43:46.432Z,88992.00
2018-07-26T09:44:46.469Z,89088.00
2018-07-26T09:45:46.509Z,89696.00
2018-07-26T09:46:46.550Z,94240.00
2018-07-26T09:47:46.589Z,95104.00
2018-07-26T09:48:46.625Z,95616.00
2018-07-26T09:49:46.673Z,96352.00
2018-07-26T09:50:46.703Z,95488.00
2018-07-26T09:51:46.739Z,91136.00
2018-07-26T09:52:46.778Z,87296.00
2018-07-26T09:53:46.818Z,83040.00
2018-07-26T09:54:46.854Z,80320.00
2018-07-26T09:55:46.896Z,80960.00
2018-07-26T09:56:46.947Z,78464.00
2018-07-26T09:57:46.982Z,71552.00
2018-07-26T09:58:47.024Z,46240.00
2018-07-26T09:59:47.061Z,23616.00
2018-07-26T10:00:47.100Z,13744.00
2018-07-26T10:01:47.138Z,23776.00
2018-07-26T10:02:47.176Z,54144.00
2018-07-26T10:03:47.213Z,84192.00
2018-07-26T10:04:47.256Z,92352.00
2018-07-26T10:05:47.303Z,94208.00
2018-07-26T10:06:47.375Z,93120.00
2018-07-26T10:07:47.381Z,92000.00
2018-07-26T10:08:47.420Z,92864.00
2018-07-26T10:09:47.464Z,92096.00
2018-07-26T10:10:47.496Z,89312.00
2018-07-26T10:11:47.535Z,90080.00
2018-07-26T10:12:47.574Z,90048.00
2018-07-26T10:13:47.625Z,88864.00
2018-07-26T10:14:47.662Z,89632.00
2018-07-26T10:15:47.701Z,91136.00
2018-07-26T10:16:47.738Z,88384.00
2018-07-26T10:17:47.777Z,87232.00
2018-07-26T10:18:47.828Z,87488.00
2018-07-26T10:19:47.869Z,88992.00
2018-07-26T10:20:47.908Z,88448.00
2018-07-26T10:21:47.945Z,90912.00
2018-07-26T10:22:47.993Z,91648.00
2018-07-26T10:23:48.045Z,89920.00
2018-07-26T10:24:48.071Z,86656.00
2018-07-26T10:25:48.121Z,86624.00
2018-07-26T10:26:48.158Z,86400.00
2018-07-26T10:27:48.251Z,86048.00
2018-07-26T10:28:48.249Z,86560.00
2018-07-26T10:29:48.286Z,86112.00
2018-07-26T10:30:48.327Z,86912.00
2018-07-26T10:31:48.380Z,85184.00
2018-07-26T10:32:48.416Z,84096.00
2018-07-26T10:33:48.467Z,87040.00
2018-07-26T10:34:48.505Z,88096.00
2018-07-26T10:35:48.542Z,86688.00
2018-07-26T10:36:48.605Z,84800.00
2018-07-26T10:37:48.633Z,84608.00
2018-07-26T10:38:48.687Z,87200.00
2018-07-26T10:39:48.722Z,89120.00
2018-07-26T10:40:48.775Z,88000.00
2018-07-26T10:41:48.815Z,87360.00
2018-07-26T10:42:48.863Z,84544.00
2018-07-26T10:43:48.901Z,83488.00
2018-07-26T10:44:48.941Z,85184.00
2018-07-26T10:45:48.992Z,86272.00
2018-07-26T10:46:49.027Z,90400.00
2018-07-26T10:47:49.078Z,94304.00
2018-07-26T10:48:49.119Z,91136.00
2018-07-26T10:49:49.170Z,89536.00
2018-07-26T10:50:49.210Z,90976.00
2018-07-26T10:51:49.258Z,89984.00
2018-07-26T10:52:49.300Z,87584.00
2018-07-26T10:53:49.349Z,85760.00
2018-07-26T10:54:49.385Z,85888.00
2018-07-26T10:55:49.435Z,87552.00
2018-07-26T10:56:49.473Z,87552.00
2018-07-26T10:57:49.525Z,86688.00
2018-07-26T10:58:49.563Z,86912.00
2018-07-26T10:59:49.614Z,85280.00
2018-07-26T11:00:49.667Z,81024.00
2018-07-26T11:01:49.704Z,81824.00
2018-07-26T11:02:49.756Z,82656.00
2018-07-26T11:03:49.841Z,82112.00
2018-07-26T11:04:49.845Z,82176.00
2018-07-26T11:05:49.889Z,84448.00
2018-07-26T11:06:49.933Z,87168.00
2018-07-26T11:07:49.973Z,87712.00
2018-07-26T11:08:50.022Z,85856.00
2018-07-26T11:09:50.073Z,80000.00
2018-07-26T11:10:50.116Z,89216.00
2018-07-26T11:11:50.165Z,89408.00
2018-07-26T11:12:50.202Z,87616.00
2018-07-26T11:13:50.254Z,85600.00
2018-07-26T11:14:50.293Z,87232.00
2018-07-26T11:15:50.345Z,91136.00
2018-07-26T11:16:50.382Z,92256.00
2018-07-26T11:17:50.432Z,89984.00
2018-07-26T11:18:50.482Z,88640.00
2018-07-26T11:19:50.520Z,89280.00
2018-07-26T11:20:50.574Z,89472.00
2018-07-26T11:21:50.609Z,88864.00
2018-07-26T11:22:50.662Z,88992.00
2018-07-26T11:23:50.701Z,87488.00
2018-07-26T11:24:50.755Z,87168.00
2018-07-26T11:25:50.792Z,84320.00
2018-07-26T11:26:50.839Z,82496.00
2018-07-26T11:27:50.892Z,83200.00
2018-07-26T11:28:50.930Z,85216.00
2018-07-26T11:29:51.013Z,85248.00
2018-07-26T11:30:51.017Z,85440.00
2018-07-26T11:31:51.070Z,85184.00
2018-07-26T11:32:51.108Z,83872.00
2018-07-26T11:33:51.158Z,80800.00
2018-07-26T11:34:51.198Z,79616.00
2018-07-26T11:35:51.323Z,80640.00
2018-07-26T11:36:51.300Z,83136.00
2018-07-26T11:37:51.355Z,84256.00
2018-07-26T11:38:51.388Z,86464.00
2018-07-26T11:39:51.425Z,88640.00
2018-07-26T11:40:51.478Z,90144.00
2018-07-26T11:41:51.607Z,88416.00
2018-07-26T11:42:51.568Z,86848.00
2018-07-26T11:43:51.610Z,89152.00
2018-07-26T11:44:51.658Z,90016.00
2018-07-26T11:45:51.708Z,91296.00
2018-07-26T11:46:51.748Z,93088.00
2018-07-26T11:47:51.800Z,93280.00
2018-07-26T11:48:51.846Z,91776.00
2018-07-26T11:49:51.885Z,91328.00
2018-07-26T11:50:51.939Z,90368.00
2018-07-26T11:51:51.977Z,91008.00
2018-07-26T11:52:52.033Z,91264.00
2018-07-26T11:53:52.066Z,88544.00
2018-07-26T11:54:52.114Z,87424.00
2018-07-26T11:55:52.192Z,85760.00
2018-07-26T11:56:52.255Z,85408.00
2018-07-26T11:57:52.256Z,85248.00
2018-07-26T11:58:52.296Z,86720.00
2018-07-26T11:59:52.346Z,90336.00
2018-07-26T12:00:52.397Z,90272.00
2018-07-26T12:01:52.437Z,86656.00
2018-07-26T12:02:52.489Z,84928.00
2018-07-26T12:03:52.538Z,87040.00
2018-07-26T12:04:52.576Z,87744.00
2018-07-26T12:05:52.615Z,90272.00
2018-07-26T12:06:52.664Z,90816.00
2018-07-26T12:07:52.714Z,88480.00
2018-07-26T12:08:52.752Z,88032.00
2018-07-26T12:09:52.803Z,89536.00
2018-07-26T12:10:52.848Z,90080.00
2018-07-26T12:11:52.901Z,92448.00
2018-07-26T12:12:52.946Z,92608.00